Atkins, IA

2:26 PM CDT on August 21, 2014 (GMT -0500)
KIASHELL3 | Change Station
CLOSE
Current Station
Personal Weather Station
Location: Shellsburg, IA
Elevation: 869 ft
Nearby Weather Stations

Elev 869 ft 42.09 °N, 91.92 °W | Updated 1 minute ago

Light Rain
Light Rain Mist
78.4 °F
Feels Like 82 °F
N
10.9
Wind Variable Wind from South

Today
High -- | Low -- °F
--% Chance of Precip.
Yesterday
High -- | Low -- °F
Precip. -- in
6:21 AM 7:58 PM
Waning Crescent, 12% visible
Pressure 29.89 in
Visibility 1.8 miles
Clouds Few 2600 ft
Overcast 10000 ft
Heat Index 82 °F
Dew Point 76 °F
Humidity 91%
Rainfall 0.18 in
Snow Depth Not available.
UV 3 out of 12
Pollen 6.60 out of 12
Air Quality Not available.
Flu Activity Not available.
SPECI KCID 211923Z 18010KT 1 3/4SM -RA BR FEW026 OVC100 24/23 A2989 RMK AO2 LTG DSNT W RAB21 PRESRR P0009 T02390233

More Conditions Fewer Conditions

Pressure 29.89 in
Visibility 1.8 miles
Clouds Few 2600 ft
Overcast 10000 ft
Heat Index 82 °F
Dew Point 76 °F
Humidity 91%
Rainfall 0.18 in
Snow Depth Not available.
UV 3 out of 12
Pollen 6.60 out of 12
Air Quality Not available.
Flu Activity Not available.
SPECI KCID 211923Z 18010KT 1 3/4SM -RA BR FEW026 OVC100 24/23 A2989 RMK AO2 LTG DSNT W RAB21 PRESRR P0009 T02390233

More Conditions Fewer Conditions

10-Day Weather Forecast

Almanac

Astronomy

Aug. 21, 2014 Rise Set
Actual Time 6:21 AM CDT 7:58 PM CDT
Civil Twilight 5:52 AM CDT 8:28 PM CDT
Nautical Twilight 5:16 AM CDT 9:03 PM CDT
Astronomical Twilight 4:38 AM CDT 9:41 PM CDT
Moon 2:50 AM CDT 5:29 PM CDT
Length of Visible Light 14h 36m
Length of Day
13h 37m
Tomorrow will be 2m 35s shorter.
Waning Crescent, 12% of the Moon is Illuminated
Today
Waning Crescent
Aug 25
New
Sep 2
First Quarter
Sep 8
Full
Sep 15
Last Quarter

Today's Extremes

State Highs State Lows

Community

WunderPhotos

Upload Photos

1,746,008 photos uploaded!

WunderBlogs® & News

Nearby

Snow Depth

Station Depth Elevation
No new snow has been reported.

Earthquake Activity

City Distance Mag. Time & Date
No recent earthquake activity has been reported nearby.
Minimum magnitude displayed is 2.5.

Coastal Water Temperatures

Place Temperature
No Stations Reporting

Nearby Weather Stations